Time;durP1;ratioP1;P1;durP2;ratioP2;P2;SDS_P1;SDS_P2;PMS_P1;PMS_P2;Temp;Humidity;BMP_temperature;BMP_pressure;BME280_temperature;BME280_humidity;BME280_pressure;Samples;Min_cycle;Max_cycle;Signal;HPM_P1;HPM_P2
2023/10/26 00:00:36;;;;;;;4.72;1.45;;;;;;;28.07;30.30;97611.41;7389837;19;20458;-80
2023/10/26 00:03:02;;;;;;;0.88;0.88;;;;;;;28.27;30.26;97604.38;7392880;19;20007;-79
2023/10/26 00:05:28;;;;;;;1.08;0.93;;;;;;;28.45;30.27;97593.69;7390386;19;20006;-80
2023/10/26 00:07:54;;;;;;;0.30;0.30;;;;;;;28.37;30.17;97593.34;7391299;19;20007;-79
2023/10/26 00:10:20;;;;;;;0.57;0.57;;;;;;;28.39;30.74;97593.41;7390668;19;20010;-79
2023/10/26 00:12:46;;;;;;;0.80;0.80;;;;;;;28.93;29.87;97594.91;7392111;19;20022;-79
2023/10/26 00:15:12;;;;;;;2.28;1.17;;;;;;;28.07;30.59;97600.69;7392962;19;20030;-79
2023/10/26 00:17:39;;;;;;;1.33;0.93;;;;;;;28.11;30.81;97606.56;7391060;19;20014;-79
2023/10/26 00:20:06;;;;;;;0.70;0.70;;;;;;;28.22;30.68;97605.59;7394849;19;20018;-79
2023/10/26 00:22:33;;;;;;;1.00;0.45;;;;;;;28.45;30.66;97604.41;7392193;19;20035;-80
2023/10/26 00:24:59;;;;;;;0.65;0.65;;;;;;;28.40;30.85;97592.03;7390798;19;20006;-80
2023/10/26 00:27:25;;;;;;;1.00;0.73;;;;;;;27.74;31.73;97592.09;7390394;19;20018;-79
2023/10/26 00:29:51;;;;;;;0.50;0.50;;;;;;;28.19;31.61;97592.59;7390982;19;19998;-80
2023/10/26 00:32:17;;;;;;;1.63;0.90;;;;;;;28.73;31.10;97593.34;7390509;19;20450;-80
2023/10/26 00:34:43;;;;;;;3.78;1.80;;;;;;;29.09;30.57;97583.28;7388798;19;20007;-80
2023/10/26 00:37:09;;;;;;;2.05;1.15;;;;;;;29.40;30.26;97583.06;7388643;19;20014;-79
2023/10/26 00:39:36;;;;;;;4.38;1.27;;;;;;;30.02;30.00;97583.84;7390519;19;20010;-80
2023/10/26 00:42:02;;;;;;;0.17;0.17;;;;;;;30.06;29.82;97581.09;7388889;19;20051;-79
2023/10/26 00:44:28;;;;;;;0.82;0.65;;;;;;;30.53;29.20;97584.13;7388645;19;20021;-80
2023/10/26 00:46:56;;;;;;;1.15;1.15;;;;;;;31.08;28.80;97575.81;7390013;19;20568;-80
2023/10/26 00:49:23;;;;;;;1.15;1.15;;;;;;;30.62;29.03;97580.84;7388288;19;20074;-80
2023/10/26 00:51:57;;;;;;;1.08;0.98;;;;;;;30.47;29.40;97583.94;7389364;19;20010;-80
2023/10/26 00:54:24;;;;;;;0.55;0.52;;;;;;;29.96;29.11;97579.34;7388508;19;20540;-80
2023/10/26 00:56:51;;;;;;;1.00;0.73;;;;;;;29.09;30.40;97574.69;7388555;19;20465;-80
2023/10/26 00:59:17;;;;;;;2.10;0.85;;;;;;;29.50;30.33;97559.75;7389872;19;20014;-79
2023/10/26 01:01:45;;;;;;;4.53;1.63;;;;;;;30.18;29.56;97564.28;7390111;19;20021;-79
2023/10/26 01:04:16;;;;;;;2.53;1.05;;;;;;;30.13;29.61;97554.03;7390192;19;20627;-79
2023/10/26 01:06:43;;;;;;;1.13;0.82;;;;;;;30.29;29.63;97557.47;7389216;19;20499;-80
2023/10/26 01:09:10;;;;;;;1.17;0.55;;;;;;;30.42;29.39;97557.22;7389359;19;20074;-79
2023/10/26 01:11:37;;;;;;;0.43;0.43;;;;;;;30.27;29.30;97554.53;7387355;19;20014;-79
2023/10/26 01:14:05;;;;;;;0.93;0.75;;;;;;;30.10;29.70;97555.41;7386798;19;20002;-79
2023/10/26 01:16:31;;;;;;;1.48;0.52;;;;;;;30.04;29.96;97543.72;7365844;19;20520;-79
2023/10/26 01:19:05;;;;;;;0.43;0.43;;;;;;;30.07;29.68;97554.59;7387927;19;20012;-80
2023/10/26 01:21:46;;;;;;;0.65;0.30;;;;;;;30.11;29.71;97548.25;7386825;19;20066;-80
2023/10/26 01:24:13;;;;;;;0.57;0.57;;;;;;;30.71;29.26;97550.22;7388338;19;20002;-80
2023/10/26 01:26:40;;;;;;;0.82;0.82;;;;;;;30.08;29.54;97549.59;7388725;19;20021;-80
2023/10/26 01:29:06;;;;;;;3.15;0.93;;;;;;;31.38;29.02;97545.03;7390328;19;20007;-80
2023/10/26 01:31:32;;;;;;;2.70;1.75;;;;;;;30.95;29.13;97544.50;7389081;19;20010;-80
2023/10/26 01:33:58;;;;;;;0.55;0.55;;;;;;;31.05;29.17;97542.66;7387492;19;20014;-81
2023/10/26 01:36:25;;;;;;;1.98;1.75;;;;;;;31.05;29.09;97536.91;7385928;19;20145;-81
2023/10/26 01:38:52;;;;;;;0.65;0.65;;;;;;;31.22;28.83;97533.09;7389022;19;20021;-79
2023/10/26 01:41:18;;;;;;;4.53;2.20;;;;;;;31.36;28.81;97524.84;7388651;19;20458;-80
2023/10/26 01:43:44;;;;;;;1.77;0.52;;;;;;;31.36;28.92;97529.91;7389586;19;20039;-80
2023/10/26 01:46:10;;;;;;;1.02;0.73;;;;;;;31.25;29.06;97528.84;7387601;19;20338;-80
2023/10/26 01:48:36;;;;;;;0.55;0.55;;;;;;;31.97;28.50;97518.63;7387112;19;20022;-80
2023/10/26 01:51:02;;;;;;;4.03;1.23;;;;;;;32.52;28.44;97519.97;7389042;19;20269;-80
2023/10/26 01:53:28;;;;;;;0.85;0.73;;;;;;;32.69;28.03;97516.78;7386490;19;20040;-80
2023/10/26 01:55:54;;;;;;;0.38;0.22;;;;;;;32.76;28.24;97521.25;7387253;19;20461;-80
2023/10/26 01:58:21;;;;;;;0.20;0.20;;;;;;;33.44;28.01;97515.50;7386604;19;20034;-81
2023/10/26 02:00:48;;;;;;;0.40;0.40;;;;;;;33.55;27.98;97502.72;7388158;19;20577;-80
2023/10/26 02:03:15;;;;;;;1.00;1.00;;;;;;;33.06;28.13;97491.63;7387943;19;20633;-80
2023/10/26 02:05:41;;;;;;;1.35;0.45;;;;;;;32.65;28.82;97487.88;7387301;19;20450;-80
2023/10/26 02:08:07;;;;;;;1.05;1.05;;;;;;;31.48;29.76;97489.22;7386099;19;20010;-80
2023/10/26 02:10:34;;;;;;;0.40;0.20;;;;;;;31.50;29.73;97478.50;7386591;19;20010;-81
2023/10/26 02:13:00;;;;;;;0.93;0.93;;;;;;;30.46;30.87;97479.03;7387092;19;20021;-81
2023/10/26 02:15:27;;;;;;;0.35;0.35;;;;;;;28.70;32.28;97474.34;7388377;19;20011;-81
2023/10/26 02:17:53;;;;;;;0.75;0.50;;;;;;;28.93;32.56;97465.94;7386821;19;20378;-81
2023/10/26 02:20:19;;;;;;;1.30;1.20;;;;;;;28.19;33.12;97458.06;7387179;19;20014;-82
2023/10/26 02:22:46;;;;;;;4.13;1.45;;;;;;;27.64;33.82;97465.78;7388734;19;20014;-80
2023/10/26 02:25:12;;;;;;;0.35;0.35;;;;;;;28.98;32.48;97464.66;7386135;19;20454;-80
2023/10/26 02:27:39;;;;;;;1.00;1.00;;;;;;;29.14;32.12;97464.53;7386079;19;20007;-81
2023/10/26 02:30:05;;;;;;;1.27;1.00;;;;;;;28.93;32.50;97448.00;7386596;19;20061;-81
2023/10/26 02:32:32;;;;;;;0.55;0.55;;;;;;;28.77;32.60;97453.13;7386114;19;20353;-81
2023/10/26 02:34:58;;;;;;;0.30;0.30;;;;;;;32.46;29.76;97445.63;7387395;19;20010;-80
2023/10/26 02:37:24;;;;;;;3.20;1.55;;;;;;;31.67;30.14;97445.13;7385807;19;20032;-81
2023/10/26 02:39:51;;;;;;;1.55;1.45;;;;;;;33.57;28.72;97442.88;7385867;19;20529;-80
2023/10/26 02:42:17;;;;;;;4.15;0.70;;;;;;;33.75;28.73;97433.78;7384669;19;20699;-81
2023/10/26 02:44:44;;;;;;;3.83;1.40;;;;;;;33.06;28.91;97440.44;7384460;19;20003;-80
2023/10/26 02:47:10;;;;;;;0.60;0.60;;;;;;;34.31;28.30;97434.69;7384314;19;20019;-81
2023/10/26 02:49:36;;;;;;;3.60;0.75;;;;;;;35.36;27.62;97438.97;7387106;19;20070;-80
2023/10/26 02:52:02;;;;;;;1.42;1.30;;;;;;;32.65;29.48;97424.44;7387856;19;20018;-81
2023/10/26 02:54:28;;;;;;;1.35;1.20;;;;;;;31.00;31.24;97426.06;7384742;19;20014;-81
2023/10/26 02:56:55;;;;;;;3.88;1.50;;;;;;;31.18;31.15;97422.97;7389713;19;20018;-81
2023/10/26 02:59:21;;;;;;;1.10;0.88;;;;;;;31.35;31.32;97419.84;7392491;19;20772;-81
2023/10/26 03:01:47;;;;;;;0.50;0.50;;;;;;;30.71;31.80;97421.63;7393452;19;20002;-81
2023/10/26 03:04:13;;;;;;;0.70;0.70;;;;;;;30.64;31.96;97419.25;7393967;19;20006;-81
2023/10/26 03:06:40;;;;;;;0.38;0.38;;;;;;;30.24;32.50;97418.00;7393410;19;20006;-80
2023/10/26 03:09:10;;;;;;;1.42;1.38;;;;;;;31.22;31.45;97406.53;7392542;19;20473;-80
2023/10/26 03:11:36;;;;;;;1.95;1.17;;;;;;;29.67;32.89;97404.72;7391459;19;20038;-81
2023/10/26 03:14:04;;;;;;;0.65;0.50;;;;;;;28.53;34.27;97396.38;7392027;19;20365;-81
2023/10/26 03:16:30;;;;;;;3.90;0.80;;;;;;;30.06;33.09;97394.50;7391052;19;20114;-81
2023/10/26 03:18:56;;;;;;;1.73;1.20;;;;;;;29.59;33.50;97387.25;7392865;19;20035;-81
2023/10/26 03:21:22;;;;;;;3.35;1.55;;;;;;;30.22;33.28;97392.84;7391189;19;20010;-80
2023/10/26 03:23:54;;;;;;;8.00;1.20;;;;;;;32.01;31.29;97385.53;7392477;19;20014;-80
2023/10/26 03:26:21;;;;;;;2.55;2.35;;;;;;;32.26;30.90;97378.88;7391135;19;20014;-80
2023/10/26 03:28:51;;;;;;;5.07;1.30;;;;;;;32.07;31.19;97377.03;7393743;19;20014;-80
2023/10/26 03:31:18;;;;;;;3.53;0.73;;;;;;;30.11;33.03;97384.59;7390610;19;20014;-81
2023/10/26 03:33:44;;;;;;;0.93;0.73;;;;;;;29.51;34.03;97381.25;7390548;19;20011;-81
2023/10/26 03:36:15;;;;;;;5.57;1.35;;;;;;;29.56;33.81;97371.34;7391171;19;20047;-81
2023/10/26 03:38:41;;;;;;;4.25;1.25;;;;;;;29.70;33.78;97377.56;7391987;19;20010;-81
2023/10/26 03:41:08;;;;;;;2.38;1.40;;;;;;;29.80;33.77;97377.91;7391848;19;20486;-80
2023/10/26 03:43:34;;;;;;;0.82;0.68;;;;;;;29.82;33.60;97369.34;7390990;19;20474;-81
2023/10/26 03:46:00;;;;;;;1.90;0.88;;;;;;;30.13;33.50;97373.16;7392363;19;20074;-80
2023/10/26 03:48:27;;;;;;;2.08;1.27;;;;;;;30.24;33.34;97372.81;7390373;19;20010;-81
2023/10/26 03:50:53;;;;;;;1.63;1.52;;;;;;;30.47;33.22;97359.88;7393916;19;20347;-80
2023/10/26 03:53:19;;;;;;;0.80;0.80;;;;;;;30.15;33.66;97370.38;7391519;19;20011;-81
2023/10/26 03:55:47;;;;;;;7.45;0.95;;;;;;;30.28;33.27;97358.56;7390219;19;20003;-81
2023/10/26 03:58:15;;;;;;;2.42;0.93;;;;;;;30.49;33.59;97359.91;7391127;19;20021;-81
2023/10/26 04:00:45;;;;;;;3.58;0.93;;;;;;;29.49;34.43;97355.38;7390033;19;20010;-81
2023/10/26 04:03:12;;;;;;;4.07;2.30;;;;;;;29.41;34.58;97360.81;7391505;19;20021;-81
2023/10/26 04:05:38;;;;;;;1.83;0.82;;;;;;;29.49;34.89;97358.22;7392268;19;20051;-81
2023/10/26 04:08:05;;;;;;;3.15;1.77;;;;;;;29.42;34.68;97350.81;7388715;19;20017;-81
2023/10/26 04:10:31;;;;;;;7.43;0.95;;;;;;;28.81;35.31;97353.00;7389939;19;20086;-80
2023/10/26 04:12:57;;;;;;;0.63;0.63;;;;;;;28.80;35.63;97342.94;7390882;19;20011;-81
2023/10/26 04:15:23;;;;;;;3.30;1.13;;;;;;;30.32;34.42;97343.63;7389820;19;20006;-80
2023/10/26 04:17:50;;;;;;;1.65;1.13;;;;;;;31.64;32.40;97340.00;7389349;19;20042;-81
2023/10/26 04:20:16;;;;;;;4.20;1.75;;;;;;;30.05;33.98;97344.22;7392935;19;20463;-82
2023/10/26 04:22:42;;;;;;;4.57;1.48;;;;;;;29.66;34.69;97337.28;7390079;19;20417;-81
2023/10/26 04:25:08;;;;;;;4.43;1.05;;;;;;;29.69;34.64;97335.19;7389887;19;20010;-81
2023/10/26 04:27:35;;;;;;;2.92;1.45;;;;;;;29.08;35.49;97329.59;7389543;19;20492;-83
2023/10/26 04:30:01;;;;;;;3.08;0.73;;;;;;;30.34;34.07;97327.16;7391900;19;20466;-81
2023/10/26 04:32:27;;;;;;;2.53;0.98;;;;;;;30.20;34.53;97326.75;7389186;19;20036;-82
2023/10/26 04:34:53;;;;;;;0.88;0.70;;;;;;;29.38;35.34;97322.00;7389710;19;20017;-83
2023/10/26 04:37:19;;;;;;;0.17;0.17;;;;;;;31.15;33.77;97315.75;7389868;19;20026;-83
2023/10/26 04:39:45;;;;;;;0.98;0.98;;;;;;;31.03;33.41;97315.47;7390617;19;20088;-83
2023/10/26 04:42:12;;;;;;;7.18;0.95;;;;;;;30.55;34.29;97319.88;7392142;19;20578;-84
2023/10/26 04:44:41;;;;;;;17.92;1.23;;;;;;;30.88;33.79;97310.75;7389697;19;20002;-83
2023/10/26 04:47:07;;;;;;;0.82;0.82;;;;;;;31.28;33.58;97311.78;7391264;19;20018;-83
2023/10/26 04:49:33;;;;;;;1.40;0.52;;;;;;;32.10;32.68;97309.41;7391315;19;20022;-83
2023/10/26 04:52:00;;;;;;;1.55;0.90;;;;;;;33.42;31.16;97319.16;7390016;19;20049;-84
2023/10/26 04:54:27;;;;;;;1.88;0.93;;;;;;;31.13;33.09;97321.47;7388172;19;20014;-82
2023/10/26 04:56:54;;;;;;;0.10;0.10;;;;;;;31.76;32.99;97311.50;7389843;19;20010;-81
2023/10/26 04:59:20;;;;;;;4.03;0.85;;;;;;;31.78;32.62;97314.41;7385212;19;20031;-80
2023/10/26 05:01:47;;;;;;;1.92;1.63;;;;;;;32.35;32.17;97305.63;7385021;19;20014;-80
2023/10/26 05:04:13;;;;;;;1.48;1.10;;;;;;;32.02;32.84;97304.22;7383335;19;20048;-79
2023/10/26 05:06:39;;;;;;;0.52;0.50;;;;;;;32.28;32.08;97294.66;7382615;19;20035;-79
2023/10/26 05:09:05;;;;;;;0.32;0.22;;;;;;;32.70;32.16;97299.13;7389504;19;20010;-79
2023/10/26 05:11:32;;;;;;;1.10;0.82;;;;;;;32.36;31.97;97301.31;7388211;19;20536;-79
2023/10/26 05:13:58;;;;;;;2.28;1.25;;;;;;;32.51;32.41;97294.44;7387515;19;20015;-79
2023/10/26 05:16:24;;;;;;;0.38;0.38;;;;;;;31.80;32.79;97297.91;7390705;19;20473;-80
2023/10/26 05:18:51;;;;;;;0.32;0.32;;;;;;;32.39;32.21;97294.19;7390367;19;20052;-79
2023/10/26 05:21:17;;;;;;;0.50;0.50;;;;;;;31.93;32.80;97293.16;7389467;19;20465;-79
2023/10/26 05:23:43;;;;;;;0.20;0.20;;;;;;;31.63;33.02;97293.22;7390041;19;20011;-79
2023/10/26 05:26:10;;;;;;;4.57;1.42;;;;;;;31.86;32.87;97295.16;7390881;19;20011;-79
2023/10/26 05:28:37;;;;;;;2.13;1.10;;;;;;;32.09;32.90;97285.66;7388635;19;20014;-80
2023/10/26 05:31:03;;;;;;;6.32;0.88;;;;;;;31.93;32.70;97293.16;7392386;19;20474;-80
2023/10/26 05:33:29;;;;;;;0.93;0.52;;;;;;;32.01;32.52;97293.38;7386474;19;20604;-79
2023/10/26 05:35:56;;;;;;;1.30;1.15;;;;;;;31.66;32.47;97294.75;7387927;19;20421;-80
2023/10/26 05:38:23;;;;;;;1.35;0.93;;;;;;;31.29;33.33;97292.38;7387675;19;20043;-80
2023/10/26 05:40:55;;;;;;;0.40;0.40;;;;;;;30.75;33.87;97297.44;7389575;19;20512;-79
2023/10/26 05:43:22;;;;;;;6.13;0.60;;;;;;;30.63;33.73;97291.34;7389316;19;20461;-80
2023/10/26 05:45:48;;;;;;;2.75;1.15;;;;;;;30.95;33.52;97288.63;7387549;19;20006;-79
2023/10/26 05:48:16;;;;;;;0.77;0.75;;;;;;;31.16;33.44;97279.84;7386776;19;20019;-80
2023/10/26 05:50:43;;;;;;;1.35;1.10;;;;;;;30.34;34.22;97281.22;7391448;19;20006;-80
2023/10/26 05:53:10;;;;;;;7.03;1.42;;;;;;;30.03;34.82;97286.75;7390229;19;20011;-80
2023/10/26 05:55:36;;;;;;;1.48;1.25;;;;;;;30.57;34.26;97276.81;7388646;19;20007;-80
2023/10/26 05:58:03;;;;;;;1.75;1.33;;;;;;;30.71;34.14;97271.44;7389290;19;20025;-79
2023/10/26 06:00:29;;;;;;;1.05;0.90;;;;;;;31.04;33.85;97265.16;7388968;19;20105;-79
2023/10/26 06:02:55;;;;;;;1.38;1.27;;;;;;;30.70;34.27;97270.00;7388783;19;20110;-79
2023/10/26 06:05:22;;;;;;;2.88;1.40;;;;;;;30.60;34.04;97258.25;7387195;19;20018;-80
2023/10/26 06:07:48;;;;;;;3.30;0.80;;;;;;;30.48;34.09;97257.91;7387968;19;20014;-79
2023/10/26 06:10:14;;;;;;;11.50;1.88;;;;;;;30.48;34.02;97257.91;7387454;19;20019;-79
2023/10/26 06:12:40;;;;;;;3.22;2.22;;;;;;;30.19;34.02;97256.34;7386331;19;20071;-79
2023/10/26 06:15:06;;;;;;;1.90;1.35;;;;;;;29.97;34.68;97253.56;7384726;19;20029;-79
2023/10/26 06:17:32;;;;;;;0.73;0.70;;;;;;;30.37;34.28;97254.03;7383871;19;20014;-79
2023/10/26 06:19:58;;;;;;;0.55;0.50;;;;;;;28.92;35.51;97263.09;7390716;19;20015;-80
2023/10/26 06:22:25;;;;;;;0.55;0.55;;;;;;;29.25;35.19;97262.81;7386588;19;20007;-84
2023/10/26 06:24:51;;;;;;;4.43;1.45;;;;;;;30.92;34.35;97267.72;7388452;19;20377;-81
2023/10/26 06:27:17;;;;;;;0.38;0.38;;;;;;;29.33;35.62;97257.31;7385537;19;20010;-81
2023/10/26 06:29:44;;;;;;;1.25;0.73;;;;;;;28.71;36.17;97263.84;7386231;19;20042;-81
2023/10/26 06:32:12;;;;;;;1.02;0.98;;;;;;;28.27;36.60;97263.72;7390044;19;20477;-81
2023/10/26 06:34:38;;;;;;;1.77;0.82;;;;;;;29.95;34.91;97253.50;7395642;19;20027;-82
2023/10/26 06:37:04;;;;;;;0.40;0.38;;;;;;;30.76;34.49;97250.03;7394862;19;20060;-81
2023/10/26 06:39:30;;;;;;;1.33;1.05;;;;;;;30.91;34.10;97251.88;7393456;19;20014;-81
2023/10/26 06:41:56;;;;;;;3.38;2.38;;;;;;;31.11;33.89;97257.41;7395141;19;20515;-81
2023/10/26 06:44:25;;;;;;;1.40;1.23;;;;;;;31.38;33.49;97256.66;7392102;19;20014;-82
2023/10/26 06:46:51;;;;;;;1.25;1.15;;;;;;;29.63;34.95;97266.13;7393093;19;20011;-81
2023/10/26 06:49:17;;;;;;;0.43;0.43;;;;;;;29.82;35.16;97260.31;7395830;19;20018;-81
2023/10/26 06:51:44;;;;;;;0.77;0.77;;;;;;;31.23;33.80;97246.94;7397535;19;20019;-82
2023/10/26 06:54:10;;;;;;;14.45;1.10;;;;;;;31.03;33.96;97249.31;7392968;19;20006;-81
2023/10/26 06:56:37;;;;;;;0.50;0.50;;;;;;;30.75;34.30;97254.31;7391193;19;20010;-81
2023/10/26 06:59:04;;;;;;;1.05;0.70;;;;;;;31.48;33.24;97253.28;7393785;19;20501;-81
2023/10/26 07:01:32;;;;;;;1.63;1.20;;;;;;;31.94;32.79;97254.31;7392166;19;20413;-80
2023/10/26 07:03:58;;;;;;;0.95;0.55;;;;;;;29.01;35.83;97256.25;7393746;19;20828;-79
2023/10/26 07:06:24;;;;;;;2.20;1.20;;;;;;;29.37;35.68;97266.06;7391904;19;20023;-81
2023/10/26 07:08:50;;;;;;;1.00;0.98;;;;;;;28.98;36.20;97261.19;7392215;19;20010;-81
2023/10/26 07:11:17;;;;;;;0.38;0.32;;;;;;;32.79;32.79;97248.84;7392524;19;20502;-81
2023/10/26 07:13:44;;;;;;;4.05;0.95;;;;;;;32.57;32.45;97256.38;7391627;19;20417;-81
2023/10/26 07:16:10;;;;;;;0.75;0.52;;;;;;;31.32;33.44;97251.47;7390564;19;20022;-81
2023/10/26 07:18:37;;;;;;;0.68;0.68;;;;;;;31.53;33.69;97258.47;7384773;19;20021;-82
2023/10/26 07:21:07;;;;;;;1.92;0.47;;;;;;;31.59;33.54;97254.97;7388499;19;20058;-81
2023/10/26 07:23:34;;;;;;;3.78;1.35;;;;;;;30.57;34.53;97248.09;7392109;19;20002;-81
2023/10/26 07:26:00;;;;;;;0.65;0.63;;;;;;;29.74;35.69;97254.31;7391473;19;20031;-81
2023/10/26 07:28:26;;;;;;;0.40;0.40;;;;;;;29.41;35.65;97266.16;7387060;19;20035;-81
2023/10/26 07:30:53;;;;;;;0.17;0.17;;;;;;;32.11;33.27;97254.00;7391176;19;20495;-82
2023/10/26 07:33:19;;;;;;;6.07;0.70;;;;;;;31.70;33.17;97250.91;7390506;19;20011;-81
2023/10/26 07:35:52;;;;;;;0.75;0.70;;;;;;;29.46;35.59;97261.31;7385019;19;20002;-82
2023/10/26 07:38:19;;;;;;;0.57;0.47;;;;;;;29.41;35.56;97257.56;7389462;19;20471;-81
2023/10/26 07:40:49;;;;;;;3.03;1.50;;;;;;;28.77;36.35;97258.31;7395470;19;20410;-81
2023/10/26 07:43:16;;;;;;;0.43;0.43;;;;;;;27.47;38.10;97249.19;7391531;19;20010;-81
2023/10/26 07:45:42;;;;;;;1.50;0.45;;;;;;;27.66;38.35;97251.38;7392633;19;20010;-81
2023/10/26 07:48:08;;;;;;;2.83;0.60;;;;;;;27.53;38.38;97253.03;7393585;19;20007;-81
2023/10/26 07:50:34;;;;;;;0.55;0.47;;;;;;;27.53;38.33;97243.72;7390879;19;20027;-81
2023/10/26 07:53:00;;;;;;;1.08;0.68;;;;;;;29.03;37.00;97242.72;7391472;19;20019;-81
2023/10/26 07:55:26;;;;;;;0.65;0.43;;;;;;;29.34;36.47;97246.59;7392927;19;20044;-83
2023/10/26 07:57:54;;;;;;;0.85;0.30;;;;;;;29.71;36.06;97249.91;7391992;19;20024;-83
2023/10/26 08:00:20;;;;;;;0.65;0.52;;;;;;;29.33;36.25;97248.72;7393358;19;20024;-84
2023/10/26 08:02:47;;;;;;;0.32;0.32;;;;;;;29.57;36.18;97240.88;7396718;19;20703;-84
2023/10/26 08:05:15;;;;;;;0.73;0.73;;;;;;;29.56;36.27;97238.69;7396681;19;20006;-86
2023/10/26 08:07:41;;;;;;;0.90;0.47;;;;;;;30.28;35.74;97234.34;7392792;19;20014;-84
2023/10/26 08:10:11;;;;;;;1.83;0.95;;;;;;;30.07;35.85;97238.06;7393867;19;20022;-84
2023/10/26 08:12:37;;;;;;;1.45;0.63;;;;;;;30.27;35.18;97244.38;7391586;19;20089;-84
2023/10/26 08:15:04;;;;;;;0.38;0.38;;;;;;;29.88;35.85;97240.41;7392529;19;20021;-84
2023/10/26 08:17:36;;;;;;;3.40;0.50;;;;;;;28.64;37.05;97245.69;7390527;19;20019;-84
2023/10/26 08:20:07;;;;;;;0.63;0.63;;;;;;;27.85;38.18;97242.09;7392759;19;20073;-84
2023/10/26 08:22:34;;;;;;;0.38;0.38;;;;;;;28.80;37.66;97243.41;7390352;19;20026;-85
2023/10/26 08:25:00;;;;;;;0.52;0.30;;;;;;;30.33;35.78;97244.56;7388295;19;20443;-83
2023/10/26 08:27:27;;;;;;;0.43;0.43;;;;;;;30.98;35.20;97244.88;7382596;19;20015;-84
2023/10/26 08:29:53;;;;;;;1.60;0.88;;;;;;;30.35;35.54;97238.88;7388576;19;20003;-84
2023/10/26 08:32:19;;;;;;;0.55;0.55;;;;;;;28.13;38.46;97248.88;7386961;19;20475;-82
2023/10/26 08:34:46;;;;;;;0.40;0.40;;;;;;;28.00;38.78;97246.25;7383063;19;20035;-83
2023/10/26 08:37:13;;;;;;;0.93;0.55;;;;;;;28.14;38.52;97238.91;7388428;19;20443;-84
2023/10/26 08:39:40;;;;;;;0.47;0.47;;;;;;;28.39;38.25;97241.22;7390001;19;20011;-84
2023/10/26 08:42:06;;;;;;;0.13;0.13;;;;;;;28.27;38.44;97243.66;7389878;19;20086;-83
2023/10/26 08:44:33;;;;;;;0.63;0.40;;;;;;;27.81;39.64;97235.50;7382176;19;20074;-83
2023/10/26 08:47:02;;;;;;;2.47;0.63;;;;;;;27.70;39.66;97242.94;7381572;19;20014;-84
2023/10/26 08:49:33;;;;;;;0.22;0.10;;;;;;;27.32;40.45;97245.03;7384913;19;20014;-84
2023/10/26 08:51:59;;;;;;;0.13;0.13;;;;;;;27.43;40.49;97237.63;7388689;19;20500;-83
2023/10/26 08:54:29;;;;;;;0.55;0.55;;;;;;;27.59;40.31;97246.81;7385961;19;19999;-83
2023/10/26 08:56:55;;;;;;;3.60;0.90;;;;;;;26.90;41.57;97246.16;7385095;19;20464;-83
2023/10/26 08:59:24;;;;;;;0.20;0.20;;;;;;;28.77;39.34;97249.72;7385908;19;20012;-83
2023/10/26 09:01:52;;;;;;;0.30;0.30;;;;;;;26.97;41.95;97242.91;7389788;19;20018;-83
2023/10/26 09:04:18;;;;;;;0.32;0.32;;;;;;;26.54;42.46;97247.47;7389646;19;20548;-83
2023/10/26 09:06:48;;;;;;;0.40;0.30;;;;;;;26.55;42.75;97243.97;7390062;19;20387;-83
2023/10/26 09:09:15;;;;;;;0.10;0.10;;;;;;;27.11;42.25;97242.78;7392909;19;20014;-83
2023/10/26 09:11:46;;;;;;;0.30;0.28;;;;;;;26.84;43.00;97243.81;7388324;19;20013;-82
2023/10/26 09:14:21;;;;;;;0.10;0.10;;;;;;;26.61;43.65;97249.97;7389410;19;20018;-83
2023/10/26 09:16:49;;;;;;;1.90;0.65;;;;;;;26.80;43.08;97240.78;7387993;19;20014;-83
2023/10/26 09:19:17;;;;;;;0.20;0.20;;;;;;;32.05;37.28;97233.00;7392236;19;20015;-83
2023/10/26 09:21:55;;;;;;;0.20;0.20;;;;;;;31.20;37.89;97236.06;7390465;19;20026;-83
2023/10/26 09:24:27;;;;;;;0.60;0.52;;;;;;;30.22;39.12;97242.78;7390762;19;20029;-83
2023/10/26 09:26:54;;;;;;;0.13;0.13;;;;;;;29.71;39.22;97238.44;7390324;19;20020;-81
2023/10/26 09:29:21;;;;;;;0.17;0.17;;;;;;;29.48;39.98;97244.88;7389342;19;20021;-85
2023/10/26 09:31:54;;;;;;;0.20;0.20;;;;;;;29.90;39.65;97236.84;7391344;19;20014;-84
2023/10/26 09:34:24;;;;;;;0.10;0.10;;;;;;;28.63;40.84;97243.50;7387683;19;20011;-84
2023/10/26 09:36:58;;;;;;;0.10;0.10;;;;;;;27.46;42.28;97237.03;7390115;19;20021;-84
2023/10/26 09:39:28;;;;;;;0.32;0.32;;;;;;;26.63;43.27;97240.72;7388073;19;20027;-83
2023/10/26 09:41:57;;;;;;;0.30;0.30;;;;;;;26.41;43.99;97246.22;7390573;19;20424;-83
2023/10/26 09:44:24;;;;;;;0.82;0.50;;;;;;;27.24;43.55;97250.44;7388002;19;20488;-83
2023/10/26 09:46:50;;;;;;;0.10;0.10;;;;;;;27.62;43.03;97251.22;7389440;19;20407;-83
2023/10/26 09:49:17;;;;;;;0.90;0.50;;;;;;;26.81;44.10;97247.97;7392179;19;20006;-83
2023/10/26 09:51:44;;;;;;;0.73;0.15;;;;;;;28.11;42.72;97240.22;7391324;19;20007;-83
2023/10/26 09:54:13;;;;;;;1.05;0.77;;;;;;;28.72;41.52;97236.66;7388871;19;20006;-83
2023/10/26 09:56:47;;;;;;;0.43;0.30;;;;;;;29.01;41.16;97244.78;7391761;19;20023;-82
2023/10/26 09:59:14;;;;;;;0.10;0.10;;;;;;;29.17;41.45;97248.22;7394518;19;20023;-83
2023/10/26 10:01:40;;;;;;;0.52;0.52;;;;;;;30.12;39.69;97242.50;7389051;19;20048;-83
2023/10/26 10:04:09;;;;;;;0.57;0.30;;;;;;;30.61;38.91;97245.31;7390441;19;20351;-83
2023/10/26 10:06:50;;;;;;;0.10;0.00;;;;;;;30.67;38.15;97251.22;7394750;19;20170;-83
2023/10/26 10:09:27;;;;;;;0.52;0.25;;;;;;;30.63;37.93;97249.00;7396764;19;20071;-82
2023/10/26 10:12:05;;;;;;;0.43;0.10;;;;;;;30.90;37.96;97244.69;7396781;19;20017;-82
2023/10/26 10:14:46;;;;;;;0.38;0.38;;;;;;;33.11;35.29;97247.97;7395314;19;20049;-82
2023/10/26 10:17:13;;;;;;;0.10;0.10;;;;;;;31.19;36.88;97243.22;7394801;19;20529;-83
2023/10/26 10:19:45;;;;;;;2.50;0.60;;;;;;;30.88;37.37;97255.41;7397013;19;20007;-82
2023/10/26 10:22:33;;;;;;;0.10;0.10;;;;;;;31.90;36.47;97257.81;7394714;19;20481;-81
2023/10/26 10:25:00;;;;;;;0.20;0.20;;;;;;;31.48;36.65;97253.28;7397639;19;20026;-81
2023/10/26 10:27:27;;;;;;;0.20;0.20;;;;;;;31.85;36.47;97249.81;7397973;19;20441;-81
2023/10/26 10:29:57;;;;;;;0.10;0.10;;;;;;;33.59;34.82;97243.69;7399385;19;20003;-80
2023/10/26 10:32:42;;;;;;;0.93;0.50;;;;;;;34.58;33.95;97238.50;7396654;19;20019;-81
2023/10/26 10:35:12;;;;;;;4.68;0.68;;;;;;;35.30;32.83;97247.13;7394042;19;20086;-81
2023/10/26 10:37:38;;;;;;;0.55;0.35;;;;;;;35.65;32.18;97240.88;7393517;19;20358;-82
2023/10/26 10:40:16;;;;;;;0.68;0.45;;;;;;;33.30;34.28;97252.59;7395614;19;20033;-81
2023/10/26 10:42:48;;;;;;;0.35;0.20;;;;;;;32.57;35.30;97244.84;7395745;19;20014;-81
2023/10/26 10:45:16;;;;;;;0.20;0.20;;;;;;;31.81;36.78;97246.84;7395862;19;20339;-82
2023/10/26 10:47:44;;;;;;;1.67;0.30;;;;;;;32.40;36.24;97243.75;7400784;19;20020;-82
2023/10/26 10:50:20;;;;;;;0.70;0.57;;;;;;;33.49;35.61;97234.88;7407328;19;20812;-82
2023/10/26 10:52:48;;;;;;;0.40;0.20;;;;;;;32.47;36.56;97239.59;7399841;19;20006;-82
2023/10/26 10:55:32;;;;;;;0.55;0.55;;;;;;;32.49;36.23;97238.91;7394356;19;20366;-84
2023/10/26 10:58:02;;;;;;;0.63;0.50;;;;;;;33.75;35.69;97234.53;7393770;19;20010;-82
2023/10/26 11:00:42;;;;;;;1.52;0.47;;;;;;;34.30;34.84;97241.78;7393607;19;20006;-82
2023/10/26 11:03:08;;;;;;;0.38;0.38;;;;;;;32.41;36.55;97238.72;7393311;19;20007;-82
2023/10/26 11:05:39;;;;;;;0.32;0.32;;;;;;;33.61;35.55;97240.84;7393027;19;20035;-90
2023/10/26 11:08:07;;;;;;;2.83;0.93;;;;;;;33.44;35.70;97232.63;7394162;19;20100;-83
2023/10/26 11:10:34;;;;;;;0.75;0.35;;;;;;;33.62;35.55;97235.81;7393172;19;20054;-80
2023/10/26 11:13:01;;;;;;;0.32;0.32;;;;;;;32.37;36.46;97230.75;7391346;19;20031;-84
2023/10/26 11:15:31;;;;;;;0.65;0.50;;;;;;;31.36;37.75;97230.72;7391385;19;20017;-82
2023/10/26 11:17:58;;;;;;;0.55;0.35;;;;;;;30.39;38.65;97230.34;7393018;19;20006;-92
2023/10/26 11:20:44;;;;;;;0.20;0.20;;;;;;;30.54;38.76;97238.69;7394739;19;20002;-85
2023/10/26 11:23:12;;;;;;;0.75;0.57;;;;;;;30.29;39.24;97230.06;7395540;19;20545;-82
2023/10/26 11:25:38;;;;;;;0.47;0.17;;;;;;;31.75;37.67;97226.56;7390693;19;20036;-82
2023/10/26 11:28:05;;;;;;;0.40;0.30;;;;;;;32.21;36.93;97226.81;7393718;19;20036;-82
2023/10/26 11:30:49;;;;;;;1.75;0.93;;;;;;;31.16;38.29;97212.97;7392467;19;20014;-82
2023/10/26 11:33:31;;;;;;;0.88;0.30;;;;;;;30.90;38.79;97210.19;7391688;19;20021;-82
2023/10/26 11:35:58;;;;;;;0.20;0.17;;;;;;;30.78;38.30;97206.97;7393082;19;20010;-82